Time;durP1;ratioP1;P1;durP2;ratioP2;P2;SDS_P1;SDS_P2;PMS_P1;PMS_P2;Temp;Humidity;BMP_temperature;BMP_pressure;BME280_temperature;BME280_humidity;BME280_pressure;Samples;Min_cycle;Max_cycle;Signal;HPM_P1;HPM_P2
2023/06/20 00:00:57;;;;;;;8.00;4.97;;;23.50;1.00;;;;;;5056552;28;20564;-79
2023/06/20 00:03:23;;;;;;;7.50;5.67;;;23.50;1.00;;;;;;5055162;28;20829;-80
2023/06/20 00:05:50;;;;;;;6.33;4.53;;;23.50;1.00;;;;;;5055973;28;20462;-79
2023/06/20 00:08:18;;;;;;;5.97;5.00;;;23.50;99.90;;;;;;5055675;28;20464;-79
2023/06/20 00:10:45;;;;;;;9.17;4.87;;;23.50;1.00;;;;;;5055313;28;20458;-79
2023/06/20 00:13:12;;;;;;;6.00;4.70;;;23.50;1.00;;;;;;5055386;28;20454;-80
2023/06/20 00:15:41;;;;;;;6.80;5.33;;;23.60;1.00;;;;;;5044386;28;20456;-78
2023/06/20 00:18:08;;;;;;;5.63;4.97;;;23.60;1.00;;;;;;5055270;28;20575;-79
2023/06/20 00:20:35;;;;;;;7.17;5.27;;;23.60;1.00;;;;;;5056359;28;20462;-80
2023/06/20 00:23:02;;;;;;;6.23;5.10;;;23.60;99.90;;;;;;5055578;28;20455;-80
2023/06/20 00:25:31;;;;;;;5.47;3.97;;;23.60;99.90;;;;;;5055368;28;20510;-80
2023/06/20 00:27:57;;;;;;;5.13;4.63;;;23.70;99.90;;;;;;5056990;28;21009;-79
2023/06/20 00:30:24;;;;;;;8.00;4.80;;;23.70;99.90;;;;;;5056101;28;20460;-82
2023/06/20 00:32:51;;;;;;;5.80;3.93;;;23.70;99.90;;;;;;5056734;28;20452;-77
2023/06/20 00:35:18;;;;;;;6.27;4.70;;;23.60;99.90;;;;;;5056139;28;20456;-80
2023/06/20 00:37:44;;;;;;;5.53;4.47;;;23.60;99.90;;;;;;5055214;28;20486;-80
2023/06/20 00:40:11;;;;;;;6.03;5.13;;;23.60;99.90;;;;;;5054843;28;20550;-78
2023/06/20 00:42:40;;;;;;;7.60;4.17;;;23.60;1.00;;;;;;5054471;28;20463;-79
2023/06/20 00:45:28;;;;;;;6.37;4.60;;;23.60;99.90;;;;;;5055382;28;20455;-77
2023/06/20 00:47:55;;;;;;;7.47;4.97;;;23.60;1.00;;;;;;5055623;28;20463;-79
2023/06/20 00:50:27;;;;;;;6.17;4.80;;;23.60;1.00;;;;;;5055341;28;20452;-80
2023/06/20 00:53:00;;;;;;;7.13;4.60;;;23.60;1.00;;;;;;5054862;28;20511;-80
2023/06/20 00:55:28;;;;;;;7.47;5.17;;;23.50;1.00;;;;;;5045493;28;20457;-77
2023/06/20 00:57:58;;;;;;;7.60;4.83;;;23.50;1.00;;;;;;5044448;28;21143;-78
2023/06/20 01:00:26;;;;;;;7.43;5.13;;;23.50;1.00;;;;;;5035999;28;20465;-79
2023/06/20 01:03:01;;;;;;;8.10;4.97;;;23.40;1.00;;;;;;5036840;28;20839;-81
2023/06/20 01:05:29;;;;;;;7.87;5.50;;;23.40;1.00;;;;;;5035902;28;20579;-80
2023/06/20 01:08:04;;;;;;;5.80;5.10;;;23.40;1.00;;;;;;5053726;28;20478;-80
2023/06/20 01:10:40;;;;;;;7.90;5.27;;;23.40;1.00;;;;;;5056054;28;20439;-79
2023/06/20 01:13:15;;;;;;;7.40;5.17;;;23.40;1.00;;;;;;5037284;28;20949;-78
2023/06/20 01:15:47;;;;;;;11.77;4.90;;;23.40;1.00;;;;;;5048591;28;20508;-80
2023/06/20 01:18:25;;;;;;;10.53;5.17;;;23.30;1.00;;;;;;5035794;28;20499;-80
2023/06/20 01:20:57;;;;;;;6.90;4.90;;;23.30;1.00;;;;;;5051972;28;20447;-80
2023/06/20 01:23:31;;;;;;;7.60;5.40;;;23.30;1.00;;;;;;5036457;28;20552;-80
2023/06/20 01:26:02;;;;;;;6.23;4.60;;;23.20;1.00;;;;;;5051059;28;20459;-81
2023/06/20 01:28:36;;;;;;;5.70;5.00;;;23.20;1.00;;;;;;5044011;28;20469;-81
2023/06/20 01:31:08;;;;;;;5.40;4.53;;;23.20;1.00;;;;;;5036324;28;20481;-80
2023/06/20 01:33:45;;;;;;;8.60;5.00;;;23.20;1.00;;;;;;5036556;28;20957;-81
2023/06/20 01:36:14;;;;;;;6.27;5.17;;;23.20;1.00;;;;;;5050994;28;20456;-80
2023/06/20 01:38:45;;;;;;;5.87;4.70;;;23.20;1.00;;;;;;5049342;28;20498;-80
2023/06/20 01:41:14;;;;;;;6.80;5.47;;;23.10;1.00;;;;;;5045496;28;20448;-78
2023/06/20 01:43:41;;;;;;;7.40;4.67;;;23.10;1.00;;;;;;5052149;28;20467;-79
2023/06/20 01:46:10;;;;;;;5.70;4.60;;;23.10;1.00;;;;;;5049452;28;20448;-81
2023/06/20 01:48:40;;;;;;;6.13;5.37;;;23.10;1.00;;;;;;5056759;28;20476;-80
2023/06/20 01:51:07;;;;;;;9.83;5.17;;;23.10;1.00;;;;;;5056913;28;20527;-81
2023/06/20 01:53:36;;;;;;;6.23;4.77;;;23.10;1.00;;;;;;5056701;28;20465;-80
2023/06/20 01:56:06;;;;;;;6.70;5.47;;;23.00;1.00;;;;;;5055087;28;20452;-77
2023/06/20 01:58:35;;;;;;;5.87;4.90;;;23.00;1.00;;;;;;5056729;28;20484;-81
2023/06/20 02:01:03;;;;;;;6.53;5.13;;;23.00;1.00;;;;;;5055007;28;20468;-80
2023/06/20 02:03:31;;;;;;;6.30;5.07;;;23.00;1.00;;;;;;5056333;28;20467;-80
2023/06/20 02:06:00;;;;;;;7.53;5.13;;;22.90;1.00;;;;;;5055140;28;20470;-79
2023/06/20 02:08:27;;;;;;;6.77;5.00;;;22.90;1.00;;;;;;5055946;28;20468;-79
2023/06/20 02:10:55;;;;;;;5.90;4.80;;;22.90;1.00;;;;;;5056544;28;20447;-79
2023/06/20 02:13:24;;;;;;;5.67;4.93;;;22.90;1.00;;;;;;5056666;28;20462;-80
2023/06/20 02:15:53;;;;;;;6.10;5.03;;;22.80;1.00;;;;;;5055542;28;20451;-79
2023/06/20 02:18:21;;;;;;;6.10;5.27;;;22.80;1.00;;;;;;5056041;28;20488;-81
2023/06/20 02:20:52;;;;;;;7.87;5.90;;;22.80;1.00;;;;;;5059053;28;20452;-80
2023/06/20 02:23:24;;;;;;;5.87;5.03;;;22.70;1.00;;;;;;5059335;28;20458;-80
2023/06/20 02:25:52;;;;;;;7.57;4.50;;;22.70;1.00;;;;;;5059253;28;20482;-79
2023/06/20 02:28:20;;;;;;;9.03;4.10;;;22.70;1.00;;;;;;5058816;28;20484;-80
2023/06/20 02:30:50;;;;;;;6.37;5.10;;;22.70;8.20;;;;;;5059775;28;20455;-81
2023/06/20 02:33:18;;;;;;;7.40;6.07;;;22.80;99.90;;;;;;5059709;28;20470;-79
2023/06/20 02:35:47;;;;;;;7.97;5.20;;;22.70;99.90;;;;;;5058858;28;20459;-81
2023/06/20 02:38:14;;;;;;;5.93;4.87;;;22.80;99.90;;;;;;5057166;28;20483;-79
2023/06/20 02:40:41;;;;;;;6.27;5.30;;;22.70;95.80;;;;;;5057411;28;20452;-79
2023/06/20 02:43:08;;;;;;;6.57;5.43;;;22.70;1.00;;;;;;5057275;28;20538;-79
2023/06/20 02:45:35;;;;;;;6.50;5.80;;;22.70;29.20;;;;;;5055513;28;20708;-79
2023/06/20 02:48:17;;;;;;;5.60;4.63;;;22.70;99.90;;;;;;5057521;28;20467;-79
2023/06/20 02:50:54;;;;;;;7.80;5.33;;;22.70;1.00;;;;;;5058228;28;20451;-78
2023/06/20 02:53:30;;;;;;;5.80;4.90;;;22.70;1.00;;;;;;5056732;28;20456;-80
2023/06/20 02:56:01;;;;;;;6.13;4.90;;;22.80;19.40;;;;;;5052089;28;20857;-80
2023/06/20 02:58:30;;;;;;;6.10;4.60;;;22.80;99.90;;;;;;5051729;28;21005;-78
2023/06/20 03:01:00;;;;;;;4.90;4.40;;;22.70;56.30;;;;;;5054246;28;20449;-81
2023/06/20 03:03:33;;;;;;;6.53;5.00;;;22.70;94.00;;;;;;5053014;28;20456;-78
2023/06/20 03:06:00;;;;;;;6.57;5.13;;;22.80;32.90;;;;;;5050684;28;20456;-80
2023/06/20 03:08:29;;;;;;;6.30;5.20;;;22.80;99.90;;;;;;5055950;28;20999;-77
2023/06/20 03:10:57;;;;;;;7.07;5.03;;;22.70;99.90;;;;;;5055071;28;20452;-80
2023/06/20 03:13:26;;;;;;;5.60;4.87;;;22.70;99.90;;;;;;5054234;28;20458;-80
2023/06/20 03:15:55;;;;;;;6.53;5.10;;;22.70;99.90;;;;;;5052552;28;20466;-80
2023/06/20 03:18:21;;;;;;;5.27;4.70;;;22.70;99.90;;;;;;5056854;28;20472;-80
2023/06/20 03:20:50;;;;;;;8.20;5.20;;;22.70;99.90;;;;;;5053332;28;20461;-79
2023/06/20 03:23:17;;;;;;;5.93;5.00;;;22.70;99.90;;;;;;5057431;28;20455;-81
2023/06/20 03:25:44;;;;;;;7.27;5.63;;;22.60;99.90;;;;;;5057410;28;20979;-81
2023/06/20 03:28:11;;;;;;;8.60;5.23;;;22.60;1.00;;;;;;5053982;28;20481;-81
2023/06/20 03:30:38;;;;;;;7.03;5.10;;;22.60;1.00;;;;;;5053885;28;20448;-81
2023/06/20 03:33:05;;;;;;;5.57;4.77;;;22.60;1.00;;;;;;5050769;28;20479;-78
2023/06/20 03:35:32;;;;;;;5.37;4.57;;;22.60;1.00;;;;;;5048340;28;21082;-80
2023/06/20 03:38:00;;;;;;;6.07;4.80;;;22.60;1.00;;;;;;5053740;28;20483;-81
2023/06/20 03:40:27;;;;;;;5.27;4.30;;;22.50;1.00;;;;;;5056222;28;20866;-78
2023/06/20 03:42:54;;;;;;;6.43;5.50;;;22.50;1.00;;;;;;5057025;28;20474;-80
2023/06/20 03:45:20;;;;;;;5.77;4.50;;;22.50;99.90;;;;;;5053889;28;20448;-82
2023/06/20 03:47:47;;;;;;;6.90;5.20;;;22.50;1.00;;;;;;5038338;28;20472;-80
2023/06/20 03:50:14;;;;;;;7.90;5.67;;;22.50;1.00;;;;;;5039134;28;20475;-80
2023/06/20 03:52:41;;;;;;;4.97;4.33;;;22.50;1.00;;;;;;5038654;28;20514;-82
2023/06/20 03:55:12;;;;;;;5.57;4.50;;;22.50;1.00;;;;;;5039759;28;20905;-80
2023/06/20 03:57:39;;;;;;;5.67;4.60;;;22.50;1.00;;;;;;5054879;28;20484;-80
2023/06/20 04:00:10;;;;;;;5.73;5.13;;;22.50;1.00;;;;;;5056649;28;20488;-81
2023/06/20 04:02:36;;;;;;;15.17;5.53;;;22.50;1.00;;;;;;5055109;28;20459;-80
2023/06/20 04:05:03;;;;;;;5.37;4.20;;;22.50;98.80;;;;;;5055876;28;20451;-79
2023/06/20 04:07:31;;;;;;;8.00;4.37;;;22.50;39.40;;;;;;5055490;28;20568;-80
2023/06/20 04:09:58;;;;;;;5.70;4.63;;;22.50;1.00;;;;;;5055993;28;20951;-80
2023/06/20 04:12:26;;;;;;;7.37;5.07;;;22.50;99.90;;;;;;5055170;28;20463;-81
2023/06/20 04:14:53;;;;;;;6.27;4.27;;;22.60;1.00;;;;;;5059330;28;20543;-81
2023/06/20 04:17:20;;;;;;;5.33;4.77;;;22.60;1.00;;;;;;5049893;28;20547;-81
2023/06/20 04:19:47;;;;;;;5.87;4.47;;;22.60;1.00;;;;;;5038853;28;20583;-81
2023/06/20 04:22:14;;;;;;;6.00;4.77;;;22.60;1.00;;;;;;5038404;28;20452;-83
2023/06/20 04:24:41;;;;;;;4.97;4.07;;;22.60;99.90;;;;;;5037666;28;20453;-81
2023/06/20 04:27:08;;;;;;;6.60;4.50;;;22.60;99.90;;;;;;5037981;28;20479;-81
2023/06/20 04:29:36;;;;;;;5.20;4.20;;;22.60;99.90;;;;;;5038786;28;20946;-82
2023/06/20 04:32:03;;;;;;;5.20;4.20;;;22.60;1.00;;;;;;5039236;28;20461;-80
2023/06/20 04:34:30;;;;;;;5.80;4.40;;;22.70;99.90;;;;;;5057558;28;20444;-81
2023/06/20 04:36:57;;;;;;;5.43;4.33;;;22.70;1.00;;;;;;5055408;28;20550;-81
2023/06/20 04:39:23;;;;;;;5.77;4.73;;;22.70;99.90;;;;;;5053774;28;20483;-81
2023/06/20 04:41:50;;;;;;;5.47;3.93;;;22.70;99.90;;;;;;5037389;28;20463;-80
2023/06/20 04:44:17;;;;;;;5.33;3.90;;;22.70;1.00;;;;;;5043652;28;20456;-81
2023/06/20 04:46:45;;;;;;;6.90;4.50;;;22.80;99.90;;;;;;5055877;28;20563;-79
2023/06/20 04:49:12;;;;;;;6.50;4.40;;;22.80;78.50;;;;;;5056442;28;20458;-80
2023/06/20 04:51:40;;;;;;;5.83;4.50;;;22.80;99.90;;;;;;5040898;28;20456;-79
2023/06/20 04:54:07;;;;;;;5.50;4.83;;;22.90;1.00;;;;;;5036953;28;20489;-81
2023/06/20 04:56:40;;;;;;;5.23;4.27;;;22.90;99.90;;;;;;5052420;28;20953;-82
2023/06/20 04:59:07;;;;;;;4.97;4.07;;;22.90;99.90;;;;;;5057782;28;20510;-80
2023/06/20 05:01:33;;;;;;;7.60;4.10;;;22.90;99.90;;;;;;5055942;28;20539;-81
2023/06/20 05:04:03;;;;;;;5.03;4.07;;;22.80;1.00;;;;;;5093917;22;20868;-79
2023/06/20 05:06:30;;;;;;;4.90;3.87;;;22.90;99.90;;;;;;5074005;28;20451;-79
2023/06/20 05:08:57;;;;;;;6.30;3.50;;;22.90;1.00;;;;;;5051605;28;20538;-81
2023/06/20 05:11:24;;;;;;;6.10;4.47;;;22.80;99.90;;;;;;5074714;28;20447;-81
2023/06/20 05:13:50;;;;;;;10.00;4.50;;;22.80;1.00;;;;;;5074784;28;20462;-78
2023/06/20 05:16:17;;;;;;;5.60;4.37;;;22.80;99.90;;;;;;5073915;28;20454;-81
2023/06/20 05:18:46;;;;;;;4.80;3.90;;;22.80;99.90;;;;;;5075654;28;20461;-80
2023/06/20 05:21:14;;;;;;;5.93;3.93;;;22.80;99.90;;;;;;5073975;28;20483;-78
2023/06/20 05:23:41;;;;;;;5.13;3.80;;;22.80;99.90;;;;;;5069224;28;20477;-79
2023/06/20 05:26:08;;;;;;;5.07;4.23;;;22.80;99.90;;;;;;5073268;28;20551;-80
2023/06/20 05:28:35;;;;;;;5.63;3.70;;;22.80;99.90;;;;;;5073028;28;20504;-80
2023/06/20 05:31:01;;;;;;;4.87;4.37;;;22.80;99.90;;;;;;5070761;28;20439;-80
2023/06/20 05:33:28;;;;;;;6.43;5.10;;;22.90;15.40;;;;;;5070776;28;20470;-81
2023/06/20 05:35:58;;;;;;;6.57;4.13;;;23.00;1.00;;;;;;5074522;28;20506;-75
2023/06/20 05:38:31;;;;;;;6.03;4.30;;;23.10;1.00;;;;;;5069845;28;20534;-77
2023/06/20 05:40:58;;;;;;;4.90;3.67;;;23.10;99.90;;;;;;5075550;28;20486;-80
2023/06/20 05:43:25;;;;;;;5.67;4.03;;;23.20;99.90;;;;;;5071748;28;20470;-80
2023/06/20 05:45:52;;;;;;;7.47;4.20;;;23.20;99.90;;;;;;5072929;28;20461;-78
2023/06/20 05:48:18;;;;;;;6.80;4.13;;;23.30;99.90;;;;;;5074585;28;20457;-79
2023/06/20 05:50:45;;;;;;;5.60;3.50;;;23.30;1.00;;;;;;5074978;28;20986;-80
2023/06/20 05:53:12;;;;;;;6.03;3.40;;;23.30;99.90;;;;;;5074264;28;20562;-82
2023/06/20 05:55:42;;;;;;;5.50;3.80;;;23.40;99.90;;;;;;5077816;28;20617;-80
2023/06/20 05:58:09;;;;;;;4.97;3.63;;;23.40;81.00;;;;;;5079447;28;20454;-78
2023/06/20 06:00:36;;;;;;;7.30;3.90;;;23.50;1.00;;;;;;5079252;28;21049;-80
2023/06/20 06:03:02;;;;;;;4.50;3.73;;;23.50;1.00;;;;;;5079591;28;20896;-78
2023/06/20 06:05:29;;;;;;;5.73;3.97;;;23.60;99.90;;;;;;5075610;28;20482;-79
2023/06/20 06:08:02;;;;;;;4.83;3.37;;;23.70;99.90;;;;;;5075151;28;20466;-78
2023/06/20 06:10:32;;;;;;;5.13;3.77;;;23.80;99.90;;;;;;5075227;28;20473;-80
2023/06/20 06:13:00;;;;;;;5.90;4.10;;;23.80;99.90;;;;;;5077715;28;20858;-80
2023/06/20 06:15:27;;;;;;;8.30;3.70;;;23.90;99.90;;;;;;5078272;28;20446;-78
2023/06/20 06:17:54;;;;;;;6.50;3.80;;;24.00;99.90;;;;;;5078785;28;20482;-79
2023/06/20 06:20:23;;;;;;;6.13;4.43;;;24.10;99.90;;;;;;5079854;28;20912;-79
2023/06/20 06:22:50;;;;;;;5.40;4.60;;;24.20;45.60;;;;;;5079526;28;21006;-78
2023/06/20 06:25:17;;;;;;;5.23;3.90;;;24.10;45.80;;;;;;5077618;28;20447;-79
2023/06/20 06:27:44;;;;;;;4.87;3.53;;;24.30;99.90;;;;;;5077579;28;20462;-79
2023/06/20 06:30:16;;;;;;;5.00;4.20;;;24.40;99.90;;;;;;5072168;28;20479;-75
2023/06/20 06:32:47;;;;;;;5.80;4.70;;;24.50;99.90;;;;;;5077597;28;20475;-79
2023/06/20 06:35:16;;;;;;;4.53;4.00;;;24.40;1.00;;;;;;5078520;28;20789;-79
2023/06/20 06:37:43;;;;;;;7.37;4.87;;;24.50;1.00;;;;;;5077992;28;20451;-79
2023/06/20 06:40:11;;;;;;;5.50;4.30;;;24.50;1.00;;;;;;5078392;28;21252;-81
2023/06/20 06:42:40;;;;;;;6.93;4.20;;;24.50;4.90;;;;;;5077594;28;20475;-76
2023/06/20 06:45:08;;;;;;;6.17;4.50;;;24.30;1.00;;;;;;5077448;28;20471;-78
2023/06/20 06:47:36;;;;;;;5.17;3.90;;;24.40;36.50;;;;;;5077838;28;20490;-77
2023/06/20 06:50:03;;;;;;;4.70;3.77;;;24.30;1.00;;;;;;5078523;28;20519;-76
2023/06/20 06:52:32;;;;;;;9.40;4.33;;;24.40;28.30;;;;;;5074670;28;20490;-78
2023/06/20 06:55:01;;;;;;;5.57;4.30;;;24.30;1.00;;;;;;5077537;28;20443;-77
2023/06/20 06:57:28;;;;;;;7.27;4.70;;;24.30;1.00;;;;;;5073209;28;20447;-79
2023/06/20 06:59:55;;;;;;;5.70;4.50;;;24.30;99.90;;;;;;5076687;28;20597;-79
2023/06/20 07:02:22;;;;;;;5.20;3.60;;;24.30;99.90;;;;;;5079063;28;20570;-79
2023/06/20 07:04:50;;;;;;;5.73;4.03;;;24.20;99.90;;;;;;5072827;28;20477;-79
2023/06/20 07:07:17;;;;;;;8.40;4.90;;;24.20;99.90;;;;;;5079030;28;20519;-78
2023/06/20 07:09:44;;;;;;;6.73;4.50;;;24.30;99.90;;;;;;5080071;28;20567;-78
2023/06/20 07:12:12;;;;;;;6.13;4.23;;;24.30;99.90;;;;;;5080548;28;20447;-80
2023/06/20 07:14:39;;;;;;;7.67;4.53;;;24.30;99.90;;;;;;5080176;28;20458;-78
2023/06/20 07:17:06;;;;;;;8.10;5.23;;;24.40;99.90;;;;;;5077974;28;20450;-79
2023/06/20 07:19:32;;;;;;;4.70;4.03;;;24.60;99.90;;;;;;5080100;28;20834;-81
2023/06/20 07:22:02;;;;;;;5.90;4.67;;;24.80;99.90;;;;;;5090150;28;20439;-79
2023/06/20 07:24:29;;;;;;;5.23;4.23;;;25.00;18.10;;;;;;5081527;28;20467;-79
2023/06/20 07:26:56;;;;;;;6.67;4.73;;;25.10;4.80;;;;;;5078220;28;20826;-79
2023/06/20 07:29:23;;;;;;;6.87;3.80;;;25.10;1.00;;;;;;5078687;28;20499;-79
2023/06/20 07:31:50;;;;;;;4.80;3.90;;;25.10;1.00;;;;;;5079061;28;20514;-81
2023/06/20 07:34:16;;;;;;;6.07;4.90;;;25.20;1.00;;;;;;5080333;28;20459;-79
2023/06/20 07:36:43;;;;;;;4.90;4.40;;;25.10;1.00;;;;;;5080785;28;21054;-81
2023/06/20 07:39:12;;;;;;;5.30;4.60;;;25.30;1.00;;;;;;5080953;28;20497;-82
2023/06/20 07:41:39;;;;;;;4.67;4.10;;;25.20;1.00;;;;;;5079238;28;20513;-79
2023/06/20 07:44:07;;;;;;;5.07;3.90;;;25.10;1.00;;;;;;5079816;28;20559;-80
2023/06/20 07:46:34;;;;;;;5.30;4.10;;;25.10;1.00;;;;;;5080027;28;20459;-81
2023/06/20 07:49:01;;;;;;;4.87;4.10;;;25.10;1.00;;;;;;5080656;28;20526;-82
2023/06/20 07:51:30;;;;;;;5.57;4.37;;;25.10;1.00;;;;;;5080873;28;20443;-79
2023/06/20 07:53:57;;;;;;;5.10;4.10;;;25.10;1.00;;;;;;5073564;28;20481;-78
2023/06/20 07:56:25;;;;;;;6.67;4.57;;;25.10;1.00;;;;;;5073496;28;20504;-78
2023/06/20 07:58:52;;;;;;;8.30;4.17;;;25.00;1.00;;;;;;5077275;28;20518;-79
2023/06/20 08:01:19;;;;;;;4.93;4.10;;;25.00;1.00;;;;;;5073071;28;20569;-81
2023/06/20 08:03:46;;;;;;;6.80;4.47;;;25.00;1.00;;;;;;5077776;28;20563;-79
2023/06/20 08:06:13;;;;;;;5.13;3.63;;;25.00;1.00;;;;;;5077971;28;20489;-81
2023/06/20 08:08:40;;;;;;;5.80;4.10;;;25.20;1.00;;;;;;5077996;28;20457;-80
2023/06/20 08:11:06;;;;;;;5.00;3.57;;;25.20;1.00;;;;;;5078116;28;20891;-80
2023/06/20 08:13:35;;;;;;;5.00;3.80;;;25.30;1.00;;;;;;5078080;28;20536;-78
2023/06/20 08:16:02;;;;;;;4.90;4.00;;;25.50;1.00;;;;;;5079985;28;20530;-81
2023/06/20 08:18:29;;;;;;;4.53;3.80;;;25.40;1.00;;;;;;5078129;28;20480;-83
2023/06/20 08:20:56;;;;;;;3.70;3.17;;;25.60;1.00;;;;;;5080502;28;20493;-82
2023/06/20 08:23:26;;;;;;;6.20;3.80;;;25.80;1.00;;;;;;5080997;28;20772;-81
2023/06/20 08:25:54;;;;;;;5.13;4.07;;;25.80;1.00;;;;;;5078926;28;20985;-82
2023/06/20 08:28:21;;;;;;;3.90;3.27;;;26.00;1.00;;;;;;5077818;28;20459;-82
2023/06/20 08:30:49;;;;;;;3.73;3.27;;;26.10;1.00;;;;;;5081059;28;20942;-83
2023/06/20 08:33:17;;;;;;;4.53;3.70;;;26.30;1.00;;;;;;5075046;28;20463;-80
2023/06/20 08:35:44;;;;;;;4.40;3.80;;;26.40;1.00;;;;;;5078672;28;20546;-81
2023/06/20 08:38:11;;;;;;;4.40;3.37;;;26.50;1.00;;;;;;5078612;28;20506;-82
2023/06/20 08:40:38;;;;;;;5.53;4.10;;;26.70;1.00;;;;;;5077627;28;20543;-81
2023/06/20 08:43:05;;;;;;;6.17;3.70;;;26.80;1.00;;;;;;5077147;28;20539;-80
2023/06/20 08:45:32;;;;;;;5.80;4.10;;;27.10;1.00;;;;;;5077038;28;20486;-82
2023/06/20 08:48:00;;;;;;;4.37;3.90;;;27.30;1.00;;;;;;5078008;28;20461;-80
2023/06/20 08:50:27;;;;;;;5.00;3.50;;;27.30;1.00;;;;;;5079711;28;20451;-78
2023/06/20 08:53:10;;;;;;;4.63;3.10;;;27.60;1.00;;;;;;5076723;28;20479;-81
2023/06/20 08:55:40;;;;;;;4.27;3.20;;;27.80;1.00;;;;;;5073169;28;20465;-83
2023/06/20 08:58:08;;;;;;;6.20;3.57;;;27.90;1.00;;;;;;5074481;28;20459;-81
2023/06/20 09:00:35;;;;;;;4.13;2.90;;;28.30;1.00;;;;;;5076849;28;20542;-82
2023/06/20 09:03:04;;;;;;;4.73;3.43;;;28.50;1.00;;;;;;5077518;28;20597;-81
2023/06/20 09:05:32;;;;;;;5.27;3.23;;;28.50;1.00;;;;;;5076277;28;20450;-81
2023/06/20 09:07:59;;;;;;;6.10;3.53;;;28.30;1.00;;;;;;5075050;28;20447;-82
2023/06/20 09:10:26;;;;;;;3.67;3.03;;;28.40;1.00;;;;;;5077666;28;20966;-79
2023/06/20 09:12:56;;;;;;;4.53;3.20;;;28.40;1.00;;;;;;5074446;28;20466;-82
2023/06/20 09:15:25;;;;;;;4.57;3.00;;;28.30;1.00;;;;;;5077184;28;20539;-81
2023/06/20 09:17:53;;;;;;;4.27;3.53;;;28.50;1.00;;;;;;5075977;28;20447;-82
2023/06/20 09:20:24;;;;;;;3.10;2.70;;;28.80;1.00;;;;;;5076677;28;20454;-82
2023/06/20 09:22:51;;;;;;;4.30;3.17;;;29.10;1.00;;;;;;5086146;28;20502;-80
2023/06/20 09:25:21;;;;;;;8.13;3.27;;;29.30;1.00;;;;;;5077211;28;20451;-80
2023/06/20 09:27:48;;;;;;;7.00;3.63;;;29.60;1.00;;;;;;5076742;28;20461;-82
2023/06/20 09:30:15;;;;;;;5.30;4.03;;;29.60;1.00;;;;;;5077251;28;20447;-82
2023/06/20 09:32:43;;;;;;;4.00;3.40;;;29.80;99.90;;;;;;5081698;28;20493;-78
2023/06/20 09:35:11;;;;;;;3.57;3.27;;;30.00;99.90;;;;;;5080125;28;20632;-82
2023/06/20 09:37:40;;;;;;;3.70;2.53;;;29.70;99.90;;;;;;5082065;28;20473;-83
2023/06/20 09:40:09;;;;;;;5.50;2.97;;;29.80;99.90;;;;;;5082102;28;20446;-79
2023/06/20 09:42:36;;;;;;;4.30;3.57;;;30.00;99.90;;;;;;5080860;28;20556;-83
2023/06/20 09:45:04;;;;;;;4.87;3.57;;;29.90;99.90;;;;;;5079818;28;20541;-79
2023/06/20 09:47:31;;;;;;;3.80;3.27;;;30.00;99.90;;;;;;5081377;28;20487;-83
2023/06/20 09:49:58;;;;;;;3.40;2.93;;;30.30;99.90;;;;;;5081601;28;20519;-83
2023/06/20 09:52:32;;;;;;;3.73;2.70;;;30.60;99.90;;;;;;5078907;28;20962;-81
2023/06/20 09:55:01;;;;;;;3.53;3.10;;;30.90;99.90;;;;;;5079251;28;20541;-82
2023/06/20 09:57:35;;;;;;;3.80;3.40;;;31.30;99.90;;;;;;5080259;28;20546;-80
2023/06/20 10:00:05;;;;;;;3.53;2.90;;;31.50;99.90;;;;;;5079746;28;20455;-82
2023/06/20 10:02:32;;;;;;;4.77;3.30;;;31.30;99.90;;;;;;5080954;28;20488;-82
2023/06/20 10:05:00;;;;;;;3.37;2.77;;;30.70;99.90;;;;;;5079555;28;20455;-83
2023/06/20 10:07:28;;;;;;;4.53;3.50;;;30.30;99.90;;;;;;5080728;28;20454;-81
2023/06/20 10:09:56;;;;;;;5.80;3.47;;;30.40;99.90;;;;;;5080962;28;20455;-80
2023/06/20 10:12:27;;;;;;;4.93;3.20;;;30.50;99.90;;;;;;5082181;28;20450;-82
2023/06/20 10:14:56;;;;;;;4.93;3.43;;;30.90;99.90;;;;;;5082781;28;20458;-83
2023/06/20 10:17:31;;;;;;;4.83;3.67;;;31.00;99.90;;;;;;5079806;28;20972;-83
2023/06/20 10:19:59;;;;;;;5.40;3.03;;;30.60;99.90;;;;;;5081250;28;20504;-83
2023/06/20 10:22:36;;;;;;;5.57;3.63;;;30.50;99.90;;;;;;5080196;28;20880;-82
2023/06/20 10:25:15;;;;;;;4.63;3.73;;;30.60;99.90;;;;;;5060645;28;20448;-83
2023/06/20 10:27:45;;;;;;;3.97;3.23;;;30.50;99.90;;;;;;5060763;28;20478;-83
2023/06/20 10:30:13;;;;;;;3.87;3.30;;;30.70;99.90;;;;;;5079577;28;20447;-84
2023/06/20 10:33:05;;;;;;;4.03;2.97;;;31.30;99.90;;;;;;5080588;28;20997;-84
2023/06/20 10:35:32;;;;;;;3.93;3.43;;;31.60;99.90;;;;;;5081045;28;20450;-84
2023/06/20 10:38:08;;;;;;;5.60;3.50;;;31.50;99.90;;;;;;5079640;28;20835;-84
2023/06/20 10:40:36;;;;;;;4.77;3.20;;;31.00;99.90;;;;;;5080183;28;20447;-84
2023/06/20 10:43:08;;;;;;;5.13;3.67;;;30.80;99.90;;;;;;5080379;28;20457;-81
2023/06/20 10:45:36;;;;;;;5.13;3.67;;;31.00;99.90;;;;;;5080229;28;20459;-83
2023/06/20 10:48:03;;;;;;;4.00;3.60;;;31.40;99.90;;;;;;5080013;28;20522;-83
2023/06/20 10:50:30;;;;;;;4.40;3.90;;;31.90;99.90;;;;;;5080019;28;20455;-82
2023/06/20 10:53:00;;;;;;;4.20;3.60;;;32.20;99.90;;;;;;5077507;28;20478;-78
2023/06/20 10:55:38;;;;;;;4.80;3.80;;;32.40;99.90;;;;;;5077026;28;20435;-79
2023/06/20 10:58:05;;;;;;;3.97;3.57;;;32.70;99.90;;;;;;5077878;28;21239;-84
2023/06/20 11:00:33;;;;;;;4.40;2.83;;;32.80;99.90;;;;;;5078919;28;20551;-84
2023/06/20 11:03:00;;;;;;;4.53;4.10;;;32.80;99.90;;;;;;5093136;22;20538;-84
2023/06/20 11:05:28;;;;;;;4.00;3.40;;;33.00;99.90;;;;;;5077460;28;20449;-82
2023/06/20 11:07:58;;;;;;;3.73;3.17;;;33.20;99.90;;;;;;5083862;28;20446;-85
2023/06/20 11:10:28;;;;;;;3.97;2.67;;;32.70;99.90;;;;;;5082070;28;20482;-83
2023/06/20 11:12:56;;;;;;;4.47;3.60;;;32.20;99.90;;;;;;5077437;28;20455;-82
2023/06/20 11:15:25;;;;;;;4.33;3.40;;;31.60;99.90;;;;;;5078327;28;20494;-83
2023/06/20 11:17:54;;;;;;;3.80;3.17;;;32.10;99.90;;;;;;5078933;28;20507;-83
2023/06/20 11:20:23;;;;;;;4.73;3.27;;;32.30;99.90;;;;;;5077002;28;20465;-83
2023/06/20 11:22:51;;;;;;;5.10;3.20;;;32.50;99.90;;;;;;5070290;28;20502;-83
2023/06/20 11:25:23;;;;;;;4.70;3.57;;;32.40;99.90;;;;;;5066089;28;20820;-85
2023/06/20 11:27:50;;;;;;;3.47;3.00;;;32.20;99.90;;;;;;5077402;28;20451;-84
2023/06/20 11:30:17;;;;;;;4.47;3.13;;;31.80;99.90;;;;;;5079335;28;20447;-84
2023/06/20 11:35:56;;;;;;;5.27;2.93;;;31.30;99.90;;;;;;5090542;27;1365357;-83
2023/06/20 11:38:25;;;;;;;3.47;2.77;;;32.00;99.90;;;;;;5133840;28;20209;-82
2023/06/20 11:41:01;;;;;;;3.53;3.00;;;32.10;99.90;;;;;;5134743;28;20444;-81
2023/06/20 11:43:34;;;;;;;3.43;2.70;;;32.50;99.90;;;;;;5126113;28;20477;-82
2023/06/20 11:46:01;;;;;;;3.90;3.03;;;33.00;99.90;;;;;;5094863;28;20456;-82
2023/06/20 11:48:29;;;;;;;3.90;3.40;;;33.30;99.90;;;;;;5101237;28;20481;-82
2023/06/20 11:50:58;;;;;;;3.97;2.87;;;33.60;99.90;;;;;;5093019;28;20549;-83
2023/06/20 11:53:29;;;;;;;4.57;3.53;;;33.90;99.90;;;;;;5087961;28;20478;-83
2023/06/20 11:55:58;;;;;;;3.33;2.67;;;34.10;99.90;;;;;;5089141;28;20977;-84
2023/06/20 11:58:27;;;;;;;3.70;2.60;;;34.20;99.90;;;;;;5108715;28;20942;-83
2023/06/20 12:01:08;;;;;;;3.80;2.60;;;34.30;99.90;;;;;;5100383;28;20688;-82
2023/06/20 12:03:35;;;;;;;4.60;2.90;;;34.50;99.90;;;;;;5093532;28;20503;-84
2023/06/20 12:06:04;;;;;;;3.70;3.23;;;34.40;99.90;;;;;;5110325;28;20455;-85
2023/06/20 12:08:37;;;;;;;3.30;2.90;;;34.70;99.90;;;;;;5110377;28;20446;-82
2023/06/20 12:11:04;;;;;;;4.20;3.40;;;34.60;99.90;;;;;;5093045;28;20458;-82
2023/06/20 12:13:33;;;;;;;3.73;3.03;;;33.80;99.90;;;;;;5093986;28;20492;-82
2023/06/20 12:16:02;;;;;;;4.70;3.30;;;33.30;99.90;;;;;;5093849;28;20441;-81
2023/06/20 12:18:29;;;;;;;3.90;3.20;;;33.50;99.90;;;;;;5092494;28;20504;-83
2023/06/20 12:21:02;;;;;;;3.43;2.60;;;34.00;99.90;;;;;;5088534;28;20831;-82
2023/06/20 12:23:30;;;;;;;2.97;2.53;;;34.50;99.90;;;;;;5090564;28;20570;-82
2023/06/20 12:25:57;;;;;;;3.33;2.80;;;35.10;99.90;;;;;;5083864;28;20530;-83
2023/06/20 12:28:24;;;;;;;3.40;2.87;;;34.40;99.90;;;;;;5088346;28;20896;-83
2023/06/20 12:30:51;;;;;;;4.53;2.40;;;33.80;99.90;;;;;;5093449;28;20447;-83
2023/06/20 12:33:18;;;;;;;3.17;2.67;;;33.10;99.90;;;;;;5092290;28;20476;-84
2023/06/20 12:35:45;;;;;;;4.00;2.60;;;33.10;99.90;;;;;;5100307;28;21079;-81
2023/06/20 12:38:12;;;;;;;3.50;2.93;;;33.30;99.90;;;;;;5098838;28;20476;-83
2023/06/20 12:40:44;;;;;;;3.63;3.13;;;34.00;99.90;;;;;;5103058;28;20523;-83
2023/06/20 12:43:11;;;;;;;3.53;2.70;;;34.30;99.90;;;;;;5101814;28;20480;-84
2023/06/20 12:45:37;;;;;;;3.40;3.07;;;34.00;99.90;;;;;;5091904;28;20457;-83
2023/06/20 12:48:05;;;;;;;4.10;3.03;;;34.00;99.90;;;;;;5079957;28;20466;-83
2023/06/20 12:50:32;;;;;;;4.37;2.93;;;34.60;99.90;;;;;;5092090;28;20826;-83
2023/06/20 12:52:58;;;;;;;3.73;3.03;;;34.70;99.90;;;;;;5081032;28;20481;-84
2023/06/20 12:55:25;;;;;;;3.90;3.40;;;34.20;99.90;;;;;;5082201;28;20483;-84
2023/06/20 12:57:54;;;;;;;3.70;2.93;;;34.00;99.90;;;;;;5082706;28;20522;-83
2023/06/20 13:00:22;;;;;;;4.80;3.27;;;33.60;99.90;;;;;;5079568;28;20486;-84